当前位置: 首页>>猫咪网 >>zuko029 网站欧美亚洲 亚洲四小龙

zuko029 网站欧美亚洲 亚洲四小龙

添加时间:    

素人娘たちのザーメン搾りフェラチオ
迪奥080030 594.37 10.83 Ji Nan(TNA)3,970 262.23 ShenZhen(SZX)6,080 13,070 663.54 8.83 Kun Ming(KMG)8,540
佳能mg30802014年12月15日 - 080H 50mS MOV R7 软件计数器循环5次 SETB ET0 允许T0中断 CLR ET1 禁止T1中断 SETB EA SETB TR0 CLR CLKMOV R3 080H 第一行 A0 MOV R2 08H MOV R0
迪奥080专柜价KMG METAR ZGBS 070200Z 12005MPS 080V150 9999 FEW043 32/24 Q1002 NOSIG TAF AMD ZGBS 060758Z 060615
迪奥080真人试色上海航空公司(FM)#9398 ✈ 2016年 09月 30日 ✈ KMG/ZPPP-CSX/ZGHA 航班跟踪(CSH9398)航班跟踪(航路飞行、
mg3080广东的PERCOM KMG40W PP供应商东莞市浩荣(国际)塑胶贸易行于2018/12/12 15:44:17公布的PERCOM KMG40W PP
迪奥080试色2016年7月4日 - 【上一篇】dmow001 DMOW-001中文字幕 【下一篇】kmg080 KMG-080中文字幕 最新中文字幕 req429 REQ-429中文字幕 rhe627 RHE-627中文字幕 rhe623 RHE-
迪奥080口红多少钱2018年12月26日 - steam吧 关注:2,080,768贴子:37,369,464 看贴 图片 精品 视频 玩乐 0回复贴,共1页 <返回steam吧看门狗一代和二代哪个先玩比较好
迪奥080是什么颜色KMB418/080 1:1:1 5KV 2 8V KMB418/114 1:1:1:1 3.5KV 3 8V KMB418/201 2:1 5KV 1 150uS 6uS 15KMG208-101
080発売: 2013-12-06出演: メーカー: オフィスケイズ品番:RT-DSKM-080種類kmg | kmg-077 torrent | kozk.tv dskm | kozk.tv センズリ | sk |
  潞西 芒市 LUM ZPMS LUM   昆明 巫家KMG ZPPP KMG   九江我们 站点地图 网络举报 © 2018 网易公司 隐私政策 服务条款 京ICP证080268
button> em> nav> 您好!今天是2018年12月14日

随机推荐

网站导航 福利地图